createdAt,value
2023-05-14T00:00:26.756Z,6.93
2023-05-14T00:02:54.267Z,7.78
2023-05-14T00:05:21.428Z,6.78
2023-05-14T00:07:48.314Z,6.10
2023-05-14T00:10:15.324Z,5.82
2023-05-14T00:12:42.513Z,8.57
2023-05-14T00:15:09.809Z,13.52
2023-05-14T00:17:37.496Z,7.70
2023-05-14T00:20:07.253Z,7.50
2023-05-14T00:22:34.976Z,6.22
2023-05-14T00:25:01.962Z,6.20
2023-05-14T00:27:31.484Z,5.75
2023-05-14T00:29:58.492Z,5.47
2023-05-14T00:32:25.630Z,5.63
2023-05-14T00:34:52.777Z,6.30
2023-05-14T00:37:19.860Z,5.22
2023-05-14T00:39:47.004Z,4.85
2023-05-14T00:42:14.089Z,4.90
2023-05-14T00:44:41.190Z,4.60
2023-05-14T00:47:08.561Z,4.82
2023-05-14T00:49:35.836Z,4.80
2023-05-14T00:52:02.810Z,4.50
2023-05-14T00:54:29.903Z,4.60
2023-05-14T00:56:56.841Z,4.38
2023-05-14T00:59:23.986Z,4.35
2023-05-14T01:01:51.129Z,4.35
2023-05-14T01:04:18.685Z,4.90
2023-05-14T01:07:02.727Z,4.57
2023-05-14T01:09:36.470Z,4.25
2023-05-14T01:12:27.105Z,4.30
2023-05-14T01:15:13.461Z,4.90
2023-05-14T01:17:47.280Z,4.75
2023-05-14T01:20:14.851Z,4.13
2023-05-14T01:22:41.827Z,4.45
2023-05-14T01:25:09.946Z,4.47
2023-05-14T01:27:50.307Z,4.80
2023-05-14T01:30:24.382Z,4.57
2023-05-14T01:32:53.434Z,4.40
2023-05-14T01:35:22.573Z,4.60
2023-05-14T01:37:49.807Z,4.53
2023-05-14T01:40:16.903Z,4.40
2023-05-14T01:42:43.988Z,4.72
2023-05-14T01:45:11.162Z,4.32
2023-05-14T01:47:38.173Z,4.72
2023-05-14T01:50:05.585Z,4.10
2023-05-14T01:52:32.747Z,4.95
2023-05-14T01:55:00.227Z,4.60
2023-05-14T01:57:27.364Z,4.65
2023-05-14T01:59:54.295Z,4.65
2023-05-14T02:02:21.607Z,4.63
2023-05-14T02:04:48.666Z,4.72
2023-05-14T02:07:15.773Z,4.82
2023-05-14T02:09:42.844Z,4.68
2023-05-14T02:12:11.150Z,4.40
2023-05-14T02:14:38.321Z,4.90
2023-05-14T02:17:05.858Z,4.85
2023-05-14T02:19:33.123Z,4.80
2023-05-14T02:22:01.236Z,4.75
2023-05-14T02:24:28.490Z,4.63
2023-05-14T02:26:55.800Z,4.82
2023-05-14T02:29:23.569Z,5.03
2023-05-14T02:31:50.637Z,5.20
2023-05-14T02:34:17.627Z,4.97
2023-05-14T02:36:44.617Z,4.55
2023-05-14T02:39:11.791Z,4.90
2023-05-14T02:41:38.897Z,4.55
2023-05-14T02:44:06.117Z,4.60
2023-05-14T02:46:33.467Z,4.65
2023-05-14T02:49:03.036Z,4.95
2023-05-14T02:51:30.059Z,4.55
2023-05-14T02:53:57.122Z,5.18
2023-05-14T02:56:24.216Z,5.18
2023-05-14T02:58:51.293Z,4.90
2023-05-14T03:01:18.937Z,4.90
2023-05-14T03:03:46.495Z,4.72
2023-05-14T03:06:13.648Z,5.00
2023-05-14T03:08:41.768Z,4.80
2023-05-14T03:11:08.800Z,5.03
2023-05-14T03:13:35.824Z,4.95
2023-05-14T03:16:02.834Z,4.60
2023-05-14T03:18:30.870Z,4.72
2023-05-14T03:20:58.149Z,4.45
2023-05-14T03:23:25.148Z,4.40
2023-05-14T03:25:52.733Z,4.55
2023-05-14T03:28:19.825Z,4.50
2023-05-14T03:30:46.960Z,5.05
2023-05-14T03:33:14.080Z,4.00
2023-05-14T03:35:41.131Z,4.32
2023-05-14T03:38:08.260Z,4.00
2023-05-14T03:40:35.344Z,3.83
2023-05-14T03:43:02.595Z,3.92
2023-05-14T03:45:30.501Z,4.03
2023-05-14T03:47:59.333Z,3.80
2023-05-14T03:50:26.935Z,3.88
2023-05-14T03:52:55.039Z,3.85
2023-05-14T03:55:22.113Z,4.05
2023-05-14T03:57:49.187Z,3.85
2023-05-14T04:00:16.478Z,3.80
2023-05-14T04:02:46.379Z,3.85
2023-05-14T04:05:13.523Z,3.70
2023-05-14T04:07:40.551Z,3.50
2023-05-14T04:10:08.184Z,3.50
2023-05-14T04:12:36.513Z,3.60
2023-05-14T04:15:04.272Z,3.50
2023-05-14T04:17:34.569Z,3.17
2023-05-14T04:20:02.160Z,3.72
2023-05-14T04:22:30.290Z,3.15
2023-05-14T04:24:57.200Z,3.67
2023-05-14T04:27:24.327Z,3.60
2023-05-14T04:29:51.377Z,3.70
2023-05-14T04:32:18.636Z,3.70
2023-05-14T04:34:46.980Z,3.45
2023-05-14T04:37:14.130Z,3.70
2023-05-14T04:39:41.192Z,3.67
2023-05-14T04:42:08.258Z,4.13
2023-05-14T04:44:36.360Z,3.92
2023-05-14T04:47:04.352Z,3.55
2023-05-14T04:49:31.378Z,4.28
2023-05-14T04:51:58.646Z,3.85
2023-05-14T04:54:25.790Z,3.65
2023-05-14T04:56:53.015Z,3.40
2023-05-14T04:59:20.164Z,3.47
2023-05-14T05:01:47.434Z,3.67
2023-05-14T05:04:14.755Z,3.97
2023-05-14T05:06:41.886Z,3.58
2023-05-14T05:09:09.553Z,3.92
2023-05-14T05:11:36.540Z,3.88
2023-05-14T05:14:03.569Z,3.55
2023-05-14T05:16:30.857Z,3.65
2023-05-14T05:18:58.178Z,4.00
2023-05-14T05:21:25.302Z,3.83
2023-05-14T05:23:52.353Z,3.75
2023-05-14T05:26:19.382Z,3.42
2023-05-14T05:28:46.497Z,4.20
2023-05-14T05:31:13.426Z,4.10
2023-05-14T05:33:40.572Z,5.50
2023-05-14T05:36:07.778Z,3.72
2023-05-14T05:38:34.888Z,11.70
2023-05-14T05:41:02.041Z,4.60
2023-05-14T05:43:29.141Z,3.20
2023-05-14T05:45:56.552Z,3.30
2023-05-14T05:48:23.559Z,3.30
2023-05-14T05:50:51.635Z,3.30
2023-05-14T05:53:18.653Z,3.08
2023-05-14T05:55:45.684Z,3.47
2023-05-14T05:58:15.747Z,3.65
2023-05-14T06:00:43.046Z,11.13
2023-05-14T06:03:10.023Z,11.15
2023-05-14T06:05:37.320Z,4.70
2023-05-14T06:08:04.813Z,3.58
2023-05-14T06:10:32.132Z,4.43
2023-05-14T06:12:59.164Z,2.83
2023-05-14T06:15:26.161Z,3.60
2023-05-14T06:17:53.254Z,3.72
2023-05-14T06:20:20.430Z,3.40
2023-05-14T06:22:47.513Z,2.88
2023-05-14T06:25:14.434Z,4.50
2023-05-14T06:27:41.614Z,3.38
2023-05-14T06:30:09.226Z,3.58
2023-05-14T06:32:36.380Z,2.40
2023-05-14T06:35:04.252Z,2.53
2023-05-14T06:37:33.471Z,3.40
2023-05-14T06:40:01.441Z,2.50
2023-05-14T06:42:28.967Z,2.80
2023-05-14T06:44:56.226Z,3.70
2023-05-14T06:47:23.286Z,4.30
2023-05-14T06:49:50.488Z,4.63
2023-05-14T06:52:17.399Z,3.95
2023-05-14T06:54:44.436Z,3.05
2023-05-14T06:57:11.400Z,2.38
2023-05-14T06:59:38.496Z,2.40
2023-05-14T07:02:05.629Z,2.45
2023-05-14T07:04:32.708Z,4.40
2023-05-14T07:06:59.812Z,5.10
2023-05-14T07:09:26.703Z,2.60
2023-05-14T07:11:53.878Z,2.47
2023-05-14T07:14:21.094Z,3.30
2023-05-14T07:16:48.170Z,2.47
2023-05-14T07:19:15.268Z,2.30
2023-05-14T07:21:42.391Z,2.30
2023-05-14T07:24:09.444Z,2.40
2023-05-14T07:26:37.042Z,4.00
2023-05-14T07:29:03.959Z,3.20
2023-05-14T07:31:31.061Z,2.75
2023-05-14T07:33:58.264Z,2.10
2023-05-14T07:36:25.400Z,2.33
2023-05-14T07:38:52.422Z,3.03
2023-05-14T07:41:19.472Z,2.13
2023-05-14T07:43:46.374Z,2.65
2023-05-14T07:46:13.337Z,3.63
2023-05-14T07:48:40.600Z,4.50
2023-05-14T07:51:07.865Z,2.30
2023-05-14T07:53:34.835Z,2.30
2023-05-14T07:56:01.829Z,3.03
2023-05-14T07:58:29.017Z,2.00
2023-05-14T08:00:56.722Z,2.20
2023-05-14T08:03:24.095Z,2.10
2023-05-14T08:05:52.524Z,2.00
2023-05-14T08:08:19.810Z,2.90
2023-05-14T08:10:46.915Z,2.30
2023-05-14T08:13:13.883Z,2.00
2023-05-14T08:15:40.948Z,1.98
2023-05-14T08:18:08.028Z,1.90
2023-05-14T08:20:35.209Z,1.98
2023-05-14T08:23:02.271Z,2.13
2023-05-14T08:25:29.396Z,2.15
2023-05-14T08:27:56.461Z,1.90
2023-05-14T08:30:23.771Z,2.10
2023-05-14T08:32:51.296Z,1.92
2023-05-14T08:35:18.360Z,2.72
2023-05-14T08:37:45.614Z,1.90
2023-05-14T08:40:12.742Z,2.25
2023-05-14T08:42:45.071Z,2.58
2023-05-14T08:45:22.160Z,2.80
2023-05-14T08:47:50.660Z,1.80
2023-05-14T08:50:21.024Z,2.75
2023-05-14T08:52:49.633Z,2.33
2023-05-14T08:55:16.666Z,2.40
2023-05-14T08:57:43.812Z,1.90
2023-05-14T09:00:11.952Z,1.80
2023-05-14T09:02:42.492Z,2.00
2023-05-14T09:05:10.003Z,3.00
2023-05-14T09:07:37.033Z,2.50
2023-05-14T09:10:04.893Z,3.90
2023-05-14T09:12:34.007Z,2.15
2023-05-14T09:15:01.120Z,2.67
2023-05-14T09:17:29.273Z,2.25
2023-05-14T09:19:56.552Z,2.00
2023-05-14T09:22:23.627Z,1.90
2023-05-14T09:25:05.524Z,1.92
2023-05-14T09:27:34.936Z,2.28
2023-05-14T09:30:12.794Z,3.08
2023-05-14T09:32:41.340Z,2.40
2023-05-14T09:35:18.874Z,2.92
2023-05-14T09:37:47.110Z,1.90
2023-05-14T09:40:14.649Z,2.10
2023-05-14T09:42:41.728Z,2.00
2023-05-14T09:45:09.699Z,2.00
2023-05-14T09:47:37.428Z,1.98
2023-05-14T09:50:05.406Z,2.00
2023-05-14T09:52:32.678Z,1.90
2023-05-14T09:55:00.313Z,2.00
2023-05-14T09:57:27.515Z,1.88
2023-05-14T09:59:54.585Z,1.80
2023-05-14T10:02:36.971Z,2.20
2023-05-14T10:05:05.953Z,1.70
2023-05-14T10:07:44.674Z,2.47
2023-05-14T10:10:15.788Z,2.05
2023-05-14T10:12:44.799Z,2.10
2023-05-14T10:15:20.861Z,1.90
2023-05-14T10:17:50.054Z,2.15
2023-05-14T10:20:17.834Z,2.08
2023-05-14T10:22:44.936Z,2.00
2023-05-14T10:25:12.186Z,1.85
2023-05-14T10:27:39.417Z,2.10
2023-05-14T10:30:11.264Z,2.20
2023-05-14T10:32:38.282Z,2.10
2023-05-14T10:35:20.684Z,2.08
2023-05-14T10:37:48.230Z,2.30
2023-05-14T10:40:15.445Z,3.50
2023-05-14T10:42:43.628Z,2.63
2023-05-14T10:45:12.005Z,2.10
2023-05-14T10:47:40.294Z,2.13
2023-05-14T10:50:10.823Z,2.10
2023-05-14T10:52:37.960Z,2.20
2023-05-14T10:55:09.316Z,2.20
2023-05-14T10:57:38.441Z,2.05
2023-05-14T11:00:07.797Z,2.42
2023-05-14T11:02:39.703Z,2.10
2023-05-14T11:05:08.713Z,1.90
2023-05-14T11:07:36.998Z,2.00
2023-05-14T11:10:08.447Z,1.92
2023-05-14T11:12:37.092Z,1.90
2023-05-14T11:15:06.429Z,1.67
2023-05-14T11:17:34.867Z,2.17
2023-05-14T11:20:01.897Z,2.70
2023-05-14T11:22:32.869Z,2.00
2023-05-14T11:25:00.040Z,2.10
2023-05-14T11:27:27.182Z,1.92
2023-05-14T11:29:55.988Z,2.10
2023-05-14T11:32:23.244Z,1.80
2023-05-14T11:34:51.338Z,2.20
2023-05-14T11:37:18.582Z,2.17
2023-05-14T11:39:49.797Z,2.10
2023-05-14T11:42:18.799Z,2.20
2023-05-14T11:44:50.108Z,1.92
2023-05-14T11:47:18.416Z,1.80
2023-05-14T11:49:45.833Z,2.38
2023-05-14T11:52:19.526Z,1.88
2023-05-14T11:54:47.195Z,1.90
2023-05-14T11:57:19.645Z,1.90
2023-05-14T11:59:47.723Z,2.10
2023-05-14T12:02:18.798Z,2.15
2023-05-14T12:04:50.184Z,2.03
2023-05-14T12:07:17.279Z,2.10
2023-05-14T12:09:50.128Z,2.20
2023-05-14T12:12:21.626Z,2.13
2023-05-14T12:14:49.385Z,2.40
2023-05-14T12:17:17.458Z,2.70
2023-05-14T12:19:45.163Z,2.85
2023-05-14T12:22:12.638Z,2.67
2023-05-14T12:24:39.735Z,2.33
2023-05-14T12:27:07.141Z,2.30
2023-05-14T12:29:39.061Z,3.30
2023-05-14T12:32:09.590Z,2.55
2023-05-14T12:34:37.790Z,2.30
2023-05-14T12:37:06.200Z,2.47
2023-05-14T12:39:34.049Z,2.10
2023-05-14T12:42:01.634Z,1.90
2023-05-14T12:44:29.961Z,2.28
2023-05-14T12:46:57.854Z,2.15
2023-05-14T12:49:25.120Z,2.38
2023-05-14T12:51:59.617Z,2.78
2023-05-14T12:54:35.336Z,2.10
2023-05-14T12:57:03.840Z,2.42
2023-05-14T12:59:31.134Z,2.10
2023-05-14T13:01:58.230Z,2.10
2023-05-14T13:04:27.591Z,2.10
2023-05-14T13:07:01.057Z,2.10
2023-05-14T13:09:28.222Z,2.15
2023-05-14T13:11:55.359Z,2.58
2023-05-14T13:14:22.396Z,2.30
2023-05-14T13:16:49.483Z,2.30
2023-05-14T13:19:16.764Z,2.13
2023-05-14T13:21:44.032Z,2.28
2023-05-14T13:24:11.118Z,2.10
2023-05-14T13:26:38.150Z,2.30
2023-05-14T13:29:05.362Z,2.08
2023-05-14T13:31:32.738Z,2.20
2023-05-14T13:34:00.130Z,2.03
2023-05-14T13:36:27.133Z,2.03
2023-05-14T13:38:54.179Z,2.10
2023-05-14T13:41:21.766Z,2.13
2023-05-14T13:43:48.760Z,2.33
2023-05-14T13:46:15.757Z,2.10
2023-05-14T13:48:42.707Z,2.05
2023-05-14T13:51:09.793Z,2.20
2023-05-14T13:53:36.940Z,2.00
2023-05-14T13:56:06.566Z,2.00
2023-05-14T13:58:33.549Z,2.28
2023-05-14T14:01:00.777Z,2.17
2023-05-14T14:03:27.840Z,2.30
2023-05-14T14:05:54.911Z,2.28
2023-05-14T14:08:24.360Z,2.05
2023-05-14T14:10:52.599Z,2.42
2023-05-14T14:13:21.311Z,2.30
2023-05-14T14:15:48.831Z,2.40
2023-05-14T14:18:16.012Z,2.25
2023-05-14T14:20:43.190Z,2.38
2023-05-14T14:23:16.816Z,2.25
2023-05-14T14:25:44.323Z,2.20
2023-05-14T14:28:11.349Z,2.10
2023-05-14T14:30:38.445Z,2.30
2023-05-14T14:33:05.574Z,2.10
2023-05-14T14:35:33.593Z,2.00
2023-05-14T14:38:00.550Z,1.98
2023-05-14T14:40:27.678Z,2.20
2023-05-14T14:42:54.756Z,2.22
2023-05-14T14:45:21.937Z,2.30
2023-05-14T14:47:49.531Z,2.17
2023-05-14T14:50:16.696Z,2.25
2023-05-14T14:52:45.598Z,3.40
2023-05-14T14:55:13.139Z,3.35
2023-05-14T14:57:40.270Z,2.65
2023-05-14T15:00:07.766Z,2.13
2023-05-14T15:02:35.830Z,2.40
2023-05-14T15:05:02.863Z,2.40
2023-05-14T15:07:33.097Z,2.33
2023-05-14T15:10:00.393Z,2.40
2023-05-14T15:12:27.430Z,2.40
2023-05-14T15:14:54.326Z,2.30
2023-05-14T15:17:21.834Z,2.40
2023-05-14T15:19:48.849Z,2.30
2023-05-14T15:22:16.059Z,2.30
2023-05-14T15:24:43.088Z,2.53
2023-05-14T15:27:10.451Z,2.28
2023-05-14T15:29:37.596Z,2.25
2023-05-14T15:32:04.862Z,2.50
2023-05-14T15:34:32.281Z,2.00
2023-05-14T15:36:59.246Z,2.38
2023-05-14T15:39:26.923Z,2.45
2023-05-14T15:41:55.313Z,2.35
2023-05-14T15:44:22.499Z,2.17
2023-05-14T15:46:49.727Z,2.33
2023-05-14T15:49:17.008Z,2.20
2023-05-14T15:51:44.054Z,2.20
2023-05-14T15:54:11.083Z,2.20
2023-05-14T15:56:38.195Z,2.40
2023-05-14T15:59:05.121Z,2.20
2023-05-14T16:01:32.249Z,2.30
2023-05-14T16:03:59.259Z,2.17
2023-05-14T16:06:26.319Z,2.15
2023-05-14T16:08:53.426Z,4.00
2023-05-14T16:11:21.552Z,2.67
2023-05-14T16:13:48.681Z,2.30
2023-05-14T16:16:16.179Z,2.53
2023-05-14T16:18:43.359Z,2.42
2023-05-14T16:21:10.279Z,2.40
2023-05-14T16:23:37.292Z,2.47
2023-05-14T16:26:05.220Z,2.40
2023-05-14T16:28:32.329Z,2.60
2023-05-14T16:31:00.850Z,3.05
2023-05-14T16:33:29.250Z,3.83
2023-05-14T16:35:56.268Z,3.80
2023-05-14T16:38:24.470Z,3.97
2023-05-14T16:40:51.437Z,4.32
2023-05-14T16:43:18.610Z,4.63
2023-05-14T16:45:45.596Z,4.78
2023-05-14T16:48:12.645Z,4.68
2023-05-14T16:50:39.764Z,4.38
2023-05-14T16:53:06.812Z,4.53
2023-05-14T16:55:33.895Z,4.45
2023-05-14T16:58:00.805Z,5.85
2023-05-14T17:00:27.865Z,4.68
2023-05-14T17:02:55.082Z,3.50
2023-05-14T17:05:22.220Z,2.88
2023-05-14T17:07:49.388Z,2.70
2023-05-14T17:10:16.521Z,2.65
2023-05-14T17:12:43.704Z,2.70
2023-05-14T17:15:11.175Z,3.20
2023-05-14T17:17:38.393Z,3.40
2023-05-14T17:20:06.551Z,3.22
2023-05-14T17:22:33.481Z,3.13
2023-05-14T17:25:00.434Z,3.10
2023-05-14T17:27:29.300Z,3.00
2023-05-14T17:29:56.303Z,2.90
2023-05-14T17:32:23.512Z,2.92
2023-05-14T17:34:51.178Z,3.25
2023-05-14T17:37:18.325Z,2.80
2023-05-14T17:39:45.363Z,2.70
2023-05-14T17:42:13.620Z,3.67
2023-05-14T17:44:40.690Z,3.35
2023-05-14T17:47:08.895Z,3.35
2023-05-14T17:49:35.888Z,3.83
2023-05-14T17:52:02.988Z,3.80
2023-05-14T17:54:30.091Z,3.75
2023-05-14T17:56:57.170Z,3.70
2023-05-14T17:59:24.553Z,3.50
2023-05-14T18:01:51.693Z,2.97
2023-05-14T18:04:18.739Z,3.70
2023-05-14T18:06:45.956Z,3.10
2023-05-14T18:09:12.960Z,3.17
2023-05-14T18:11:39.994Z,3.03
2023-05-14T18:14:07.133Z,3.65
2023-05-14T18:16:34.308Z,3.05
2023-05-14T18:19:01.526Z,3.40
2023-05-14T18:21:28.622Z,3.03
2023-05-14T18:23:56.077Z,2.92
2023-05-14T18:26:23.255Z,3.10
2023-05-14T18:28:50.486Z,3.10
2023-05-14T18:31:17.577Z,3.30
2023-05-14T18:33:44.569Z,3.10
2023-05-14T18:36:11.698Z,3.25
2023-05-14T18:38:38.740Z,3.15
2023-05-14T18:41:05.758Z,3.50
2023-05-14T18:43:32.930Z,3.70
2023-05-14T18:46:00.009Z,3.40
2023-05-14T18:48:27.218Z,3.25
2023-05-14T18:50:54.620Z,3.33
2023-05-14T18:53:21.702Z,3.40
2023-05-14T18:55:48.688Z,3.60
2023-05-14T18:58:16.631Z,3.60
2023-05-14T19:00:45.141Z,3.50
2023-05-14T19:03:16.325Z,3.50
2023-05-14T19:05:43.506Z,3.40
2023-05-14T19:08:11.638Z,3.65
2023-05-14T19:10:39.296Z,3.50
2023-05-14T19:13:06.629Z,3.45
2023-05-14T19:15:33.784Z,3.47
2023-05-14T19:18:00.979Z,3.50
2023-05-14T19:20:28.354Z,3.33
2023-05-14T19:22:55.408Z,3.60
2023-05-14T19:25:22.492Z,3.72
2023-05-14T19:27:58.008Z,3.00
2023-05-14T19:30:26.139Z,3.58
2023-05-14T19:32:55.992Z,3.80
2023-05-14T19:35:23.757Z,3.53
2023-05-14T19:37:51.479Z,3.58
2023-05-14T19:40:19.087Z,4.10
2023-05-14T19:42:46.481Z,4.18
2023-05-14T19:45:14.348Z,4.70
2023-05-14T19:47:43.216Z,4.72
2023-05-14T19:50:16.646Z,4.72
2023-05-14T19:52:44.788Z,5.00
2023-05-14T19:55:12.619Z,5.28
2023-05-14T19:57:40.457Z,5.18
2023-05-14T20:00:13.820Z,5.38
2023-05-14T20:02:44.389Z,5.20
2023-05-14T20:05:12.486Z,5.25
2023-05-14T20:07:40.604Z,5.10
2023-05-14T20:10:09.447Z,5.20
2023-05-14T20:12:37.451Z,5.25
2023-05-14T20:15:10.074Z,5.35
2023-05-14T20:17:41.943Z,4.88
2023-05-14T20:20:13.950Z,5.28
2023-05-14T20:22:44.308Z,5.32
2023-05-14T20:25:11.499Z,5.60
2023-05-14T20:27:38.588Z,4.93
2023-05-14T20:30:06.496Z,5.10
2023-05-14T20:32:33.478Z,5.18
2023-05-14T20:35:02.286Z,4.97
2023-05-14T20:37:34.812Z,5.10
2023-05-14T20:40:06.129Z,5.00
2023-05-14T20:42:33.284Z,4.88
2023-05-14T20:45:00.438Z,5.20
2023-05-14T20:47:30.570Z,4.72
2023-05-14T20:49:57.813Z,5.43
2023-05-14T20:52:24.941Z,4.88
2023-05-14T20:54:52.168Z,5.65
2023-05-14T20:57:19.439Z,4.82
2023-05-14T20:59:46.731Z,5.50
2023-05-14T21:02:14.166Z,5.20
2023-05-14T21:04:41.514Z,5.28
2023-05-14T21:07:08.644Z,5.20
2023-05-14T21:09:35.573Z,5.80
2023-05-14T21:12:02.476Z,5.53
2023-05-14T21:14:29.618Z,4.90
2023-05-14T21:16:56.703Z,5.63
2023-05-14T21:19:23.740Z,5.20
2023-05-14T21:21:50.900Z,5.38
2023-05-14T21:24:19.097Z,5.72
2023-05-14T21:26:46.488Z,5.75
2023-05-14T21:29:13.541Z,5.65
2023-05-14T21:31:40.917Z,6.05
2023-05-14T21:34:07.999Z,7.00
2023-05-14T21:36:35.158Z,7.75
2023-05-14T21:39:02.185Z,7.55
2023-05-14T21:41:31.521Z,8.25
2023-05-14T21:43:58.628Z,8.10
2023-05-14T21:46:25.970Z,7.20
2023-05-14T21:48:53.102Z,7.15
2023-05-14T21:51:20.506Z,7.75
2023-05-14T21:53:48.449Z,7.60
2023-05-14T21:56:15.640Z,7.60
2023-05-14T21:58:42.601Z,7.07
2023-05-14T22:01:11.514Z,7.03
2023-05-14T22:03:38.696Z,6.88
2023-05-14T22:06:05.904Z,7.00
2023-05-14T22:08:33.030Z,6.78
2023-05-14T22:11:00.181Z,6.70
2023-05-14T22:13:27.104Z,6.03
2023-05-14T22:16:01.538Z,6.47
2023-05-14T22:18:39.028Z,6.15
2023-05-14T22:21:06.265Z,6.43
2023-05-14T22:23:33.331Z,6.40
2023-05-14T22:26:00.426Z,6.55
2023-05-14T22:28:27.430Z,5.63
2023-05-14T22:30:55.254Z,5.80
2023-05-14T22:33:22.537Z,6.32
2023-05-14T22:35:49.563Z,6.15
2023-05-14T22:38:16.733Z,6.07
2023-05-14T22:40:43.770Z,5.55
2023-05-14T22:43:10.973Z,5.85
2023-05-14T22:45:38.011Z,6.13
2023-05-14T22:48:05.154Z,5.60
2023-05-14T22:50:32.169Z,6.35
2023-05-14T22:52:59.138Z,6.03
2023-05-14T22:55:26.514Z,5.78
2023-05-14T22:57:53.649Z,5.38
2023-05-14T23:00:20.571Z,5.75
2023-05-14T23:02:47.620Z,5.72
2023-05-14T23:05:14.876Z,5.90
2023-05-14T23:07:41.920Z,5.85
2023-05-14T23:10:09.344Z,5.65
2023-05-14T23:12:36.458Z,6.15
2023-05-14T23:15:03.786Z,5.55
2023-05-14T23:17:37.473Z,6.38
2023-05-14T23:20:10.644Z,6.10
2023-05-14T23:22:37.665Z,6.00
2023-05-14T23:25:05.325Z,5.80
2023-05-14T23:27:32.546Z,6.03
2023-05-14T23:29:59.699Z,5.60
2023-05-14T23:32:26.901Z,5.45
2023-05-14T23:34:54.046Z,6.05
2023-05-14T23:37:21.049Z,6.32
2023-05-14T23:39:48.052Z,5.70
2023-05-14T23:42:15.081Z,6.32
2023-05-14T23:44:42.110Z,6.50
2023-05-14T23:47:09.138Z,6.60
2023-05-14T23:49:36.674Z,6.55
2023-05-14T23:52:03.829Z,6.70
2023-05-14T23:54:30.911Z,7.18
2023-05-14T23:56:57.908Z,5.90
2023-05-14T23:59:24.841Z,6.75
